Time;durP1;ratioP1;P1;durP2;ratioP2;P2;SDS_P1;SDS_P2;PMS_P1;PMS_P2;Temp;Humidity;BMP_temperature;BMP_pressure;BME280_temperature;BME280_humidity;BME280_pressure;Samples;Min_cycle;Max_cycle;Signal;HPM_P1;HPM_P2
2023/12/06 00:00:10;;;;;;;41.80;13.90;;;4.20;99.90;;;;;;5078076;28;20245;-85
2023/12/06 00:02:35;;;;;;;41.17;12.48;;;4.30;99.90;;;;;;5060425;28;20399;-85
2023/12/06 00:05:01;;;;;;;40.27;12.77;;;4.30;99.90;;;;;;5078222;28;20245;-84
2023/12/06 00:09:58;;;;;;;48.72;13.82;;;4.20;99.90;;;;;;5060512;28;20205;-84
2023/12/06 00:12:24;;;;;;;40.67;13.48;;;4.20;99.90;;;;;;5063659;28;20164;-84
2023/12/06 00:14:49;;;;;;;39.20;13.77;;;4.10;99.90;;;;;;5062846;28;20256;-84
2023/12/06 00:17:15;;;;;;;43.20;13.27;;;4.10;99.90;;;;;;5062755;28;20162;-84
2023/12/06 00:19:40;;;;;;;40.90;13.23;;;4.10;99.90;;;;;;5062638;28;20157;-83
2023/12/06 00:22:06;;;;;;;37.87;12.00;;;4.10;99.90;;;;;;5044157;28;20570;-83
2023/12/06 00:24:32;;;;;;;36.10;11.50;;;4.10;99.90;;;;;;5061354;28;20554;-83
2023/12/06 00:26:57;;;;;;;35.03;10.87;;;4.10;99.90;;;;;;5061255;28;20172;-83
2023/12/06 00:29:23;;;;;;;39.73;13.37;;;4.10;99.90;;;;;;5061994;28;20157;-82
2023/12/06 00:31:49;;;;;;;33.23;10.40;;;4.10;99.90;;;;;;5061905;28;20165;-83
2023/12/06 00:34:14;;;;;;;37.23;12.47;;;4.00;99.90;;;;;;5061636;28;20197;-83
2023/12/06 00:36:41;;;;;;;32.17;10.90;;;4.00;99.90;;;;;;5062714;28;20169;-83
2023/12/06 00:39:06;;;;;;;36.03;10.75;;;4.00;99.90;;;;;;5063081;28;20201;-83
2023/12/06 00:41:32;;;;;;;34.57;11.40;;;4.00;99.90;;;;;;5062219;28;20189;-83
2023/12/06 00:44:01;;;;;;;36.60;12.70;;;4.00;99.90;;;;;;5061647;28;20192;-83
2023/12/06 00:46:27;;;;;;;36.67;11.85;;;4.00;99.90;;;;;;5061628;28;20169;-83
2023/12/06 00:48:53;;;;;;;35.73;11.10;;;4.00;99.90;;;;;;5061823;28;20236;-83
2023/12/06 00:51:18;;;;;;;38.80;12.07;;;4.00;99.90;;;;;;5061783;28;20224;-83
2023/12/06 00:53:44;;;;;;;38.10;11.70;;;4.00;99.90;;;;;;5061624;28;20182;-83
2023/12/06 00:58:47;;;;;;;38.35;12.88;;;3.90;99.90;;;;;;5151045;22;20223;-83
2023/12/06 01:01:12;;;;;;;32.07;10.60;;;3.90;99.90;;;;;;5065400;28;20202;-83
2023/12/06 01:03:40;;;;;;;33.20;11.73;;;4.00;99.90;;;;;;5064828;28;20180;-83
2023/12/06 01:06:06;;;;;;;37.45;12.23;;;3.90;99.90;;;;;;5082892;28;20552;-83
2023/12/06 01:08:32;;;;;;;34.67;10.07;;;3.90;99.90;;;;;;5065132;28;20172;-83
2023/12/06 01:10:58;;;;;;;34.63;10.73;;;3.90;99.90;;;;;;5064995;28;20176;-83
2023/12/06 01:13:24;;;;;;;40.50;11.53;;;3.90;99.90;;;;;;5082817;28;20172;-83
2023/12/06 01:15:50;;;;;;;39.33;13.00;;;3.90;99.90;;;;;;5083673;28;20172;-83
2023/12/06 01:18:15;;;;;;;32.13;10.97;;;3.80;99.90;;;;;;5083707;28;20192;-83
2023/12/06 01:20:41;;;;;;;30.40;11.00;;;3.80;99.90;;;;;;5064988;28;20200;-83
2023/12/06 01:23:07;;;;;;;39.37;12.90;;;3.80;99.90;;;;;;5065843;28;20645;-83
2023/12/06 01:25:33;;;;;;;34.70;10.23;;;3.70;99.90;;;;;;5082438;28;20425;-83
2023/12/06 01:27:59;;;;;;;34.10;12.70;;;3.70;99.90;;;;;;5082536;28;20161;-83
2023/12/06 01:30:24;;;;;;;39.90;13.53;;;3.80;99.90;;;;;;5082962;28;20432;-83
2023/12/06 01:32:50;;;;;;;35.20;12.80;;;3.80;99.90;;;;;;5081789;28;20402;-83
2023/12/06 01:35:16;;;;;;;39.97;12.47;;;3.80;99.90;;;;;;5082024;28;20191;-83
2023/12/06 01:37:42;;;;;;;40.40;13.70;;;3.80;99.90;;;;;;5081342;28;20406;-83
2023/12/06 01:40:08;;;;;;;37.87;14.17;;;3.70;99.90;;;;;;5063294;28;20196;-83
2023/12/06 01:42:35;;;;;;;35.85;11.85;;;3.80;99.90;;;;;;5063439;28;20771;-83
2023/12/06 01:45:01;;;;;;;35.40;12.35;;;3.80;99.90;;;;;;5062712;28;20191;-83
2023/12/06 01:47:29;;;;;;;36.22;12.40;;;3.70;99.90;;;;;;5081948;28;20168;-83
2023/12/06 01:49:59;;;;;;;37.40;13.07;;;3.70;99.90;;;;;;5064583;28;20176;-83
2023/12/06 01:52:25;;;;;;;35.22;12.98;;;3.80;99.90;;;;;;5081804;28;20157;-83
2023/12/06 01:54:51;;;;;;;47.10;13.70;;;3.80;99.90;;;;;;5081515;28;20188;-83
2023/12/06 01:57:17;;;;;;;40.30;14.52;;;3.60;99.90;;;;;;5081747;28;20406;-83
2023/12/06 01:59:43;;;;;;;37.47;14.00;;;3.70;99.90;;;;;;5063762;28;20246;-83
2023/12/06 02:02:10;;;;;;;44.08;14.93;;;3.60;99.90;;;;;;5082013;28;20490;-83
2023/12/06 02:04:38;;;;;;;41.70;15.10;;;3.70;99.90;;;;;;5081724;28;20176;-83
2023/12/06 02:07:04;;;;;;;40.58;15.73;;;3.70;99.90;;;;;;5082032;28;20161;-83
2023/12/06 02:09:29;;;;;;;42.50;16.63;;;3.80;99.90;;;;;;5081318;28;20160;-84
2023/12/06 02:11:55;;;;;;;46.63;16.80;;;3.80;99.90;;;;;;5081883;28;20210;-83
2023/12/06 02:14:21;;;;;;;46.37;17.17;;;3.70;99.90;;;;;;5081078;28;20191;-83
2023/12/06 02:16:50;;;;;;;47.73;17.93;;;3.80;99.90;;;;;;5080959;28;20179;-84
2023/12/06 02:19:22;;;;;;;44.65;18.00;;;3.70;99.90;;;;;;5081167;28;20411;-83
2023/12/06 02:21:49;;;;;;;55.25;19.65;;;3.70;99.90;;;;;;5081415;28;20168;-83
2023/12/06 02:24:16;;;;;;;54.47;22.38;;;3.70;99.90;;;;;;5081124;28;20177;-83
2023/12/06 02:26:42;;;;;;;51.20;18.67;;;3.60;99.90;;;;;;5080867;28;20164;-83
2023/12/06 02:29:08;;;;;;;52.30;21.60;;;3.60;99.90;;;;;;5081236;28;20178;-83
2023/12/06 02:31:33;;;;;;;55.60;21.57;;;3.60;99.90;;;;;;5082035;28;20219;-83
2023/12/06 02:34:08;;;;;;;56.30;22.50;;;3.50;99.90;;;;;;5082407;28;20195;-83
2023/12/06 02:36:35;;;;;;;54.55;23.27;;;3.50;99.90;;;;;;5082441;28;20598;-83
2023/12/06 02:39:01;;;;;;;65.00;26.58;;;3.40;99.90;;;;;;5081631;28;20519;-83
2023/12/06 02:41:29;;;;;;;57.88;23.80;;;3.30;99.90;;;;;;5063961;28;20258;-83
2023/12/06 02:43:54;;;;;;;58.38;25.77;;;3.40;99.90;;;;;;5081418;28;20245;-83
2023/12/06 02:46:20;;;;;;;62.90;26.30;;;3.30;99.90;;;;;;5063643;28;20160;-83
2023/12/06 02:48:46;;;;;;;58.80;23.33;;;3.30;99.90;;;;;;5081673;28;20228;-83
2023/12/06 02:51:11;;;;;;;59.97;25.83;;;3.30;99.90;;;;;;5063730;28;20172;-83
2023/12/06 02:53:37;;;;;;;62.67;27.80;;;3.30;99.90;;;;;;5062434;28;20271;-84
2023/12/06 02:56:03;;;;;;;70.40;26.30;;;3.30;99.90;;;;;;5081303;28;20576;-84
2023/12/06 02:58:31;;;;;;;59.77;25.40;;;3.20;99.90;;;;;;5081161;28;20602;-84
2023/12/06 03:00:57;;;;;;;64.93;27.23;;;3.10;99.90;;;;;;5080536;28;20466;-84
2023/12/06 03:03:22;;;;;;;63.07;25.40;;;3.10;99.90;;;;;;5081048;28;20560;-84
2023/12/06 03:05:48;;;;;;;63.03;25.97;;;3.10;99.90;;;;;;5062829;28;20247;-84
2023/12/06 03:08:14;;;;;;;64.27;27.03;;;3.10;99.90;;;;;;5061573;28;20167;-84
2023/12/06 03:13:13;;;;;;;65.82;25.35;;;3.10;99.90;;;;;;5056867;28;20217;-84
2023/12/06 03:15:39;;;;;;;61.50;24.47;;;3.10;99.90;;;;;;5060346;28;20173;-84
2023/12/06 03:18:05;;;;;;;52.88;22.85;;;3.10;99.90;;;;;;5041859;28;20219;-84
2023/12/06 03:20:30;;;;;;;65.00;27.80;;;3.10;99.90;;;;;;5059566;28;20201;-84
2023/12/06 03:22:56;;;;;;;57.67;23.40;;;3.10;99.90;;;;;;5060169;28;20408;-84
2023/12/06 03:25:25;;;;;;;60.33;26.37;;;3.10;99.90;;;;;;5060043;28;20231;-84
2023/12/06 03:27:53;;;;;;;59.08;27.75;;;3.10;99.90;;;;;;5059538;28;20161;-85
2023/12/06 03:30:19;;;;;;;50.80;22.48;;;3.10;99.90;;;;;;5059363;28;20176;-85
2023/12/06 03:32:47;;;;;;;54.57;25.03;;;3.10;99.90;;;;;;5060086;28;20161;-85
2023/12/06 03:35:13;;;;;;;55.58;26.02;;;3.10;99.90;;;;;;5041956;28;20200;-85
2023/12/06 03:37:39;;;;;;;49.83;23.60;;;3.10;99.90;;;;;;5059928;28;20165;-85
2023/12/06 03:40:08;;;;;;;56.23;24.23;;;3.20;99.90;;;;;;5042294;28;20447;-85
2023/12/06 03:42:33;;;;;;;56.72;24.15;;;3.10;99.90;;;;;;5042160;28;20684;-84
2023/12/06 03:45:01;;;;;;;50.23;22.13;;;3.10;99.90;;;;;;5042765;28;20189;-85
2023/12/06 03:47:27;;;;;;;58.17;24.80;;;3.10;99.90;;;;;;5059743;28;20169;-84
2023/12/06 03:49:53;;;;;;;51.73;22.80;;;3.10;99.90;;;;;;5059988;28;20223;-84
2023/12/06 03:52:19;;;;;;;51.92;22.00;;;3.10;99.90;;;;;;5059678;28;20166;-83
2023/12/06 03:54:44;;;;;;;47.93;21.13;;;3.10;99.90;;;;;;5060320;28;20241;-83
2023/12/06 03:57:10;;;;;;;54.13;21.90;;;3.20;99.90;;;;;;5059948;28;20161;-83
2023/12/06 03:59:36;;;;;;;49.97;21.30;;;3.20;99.90;;;;;;5041837;28;20175;-83
2023/12/06 04:02:01;;;;;;;55.13;21.00;;;3.10;99.90;;;;;;5058707;28;20193;-83
2023/12/06 04:04:27;;;;;;;45.97;20.43;;;3.10;99.90;;;;;;5058774;28;20177;-83
2023/12/06 04:06:53;;;;;;;48.10;20.53;;;3.10;99.90;;;;;;5059406;28;20172;-83
2023/12/06 04:09:18;;;;;;;48.60;19.30;;;3.10;99.90;;;;;;5059060;28;20161;-83
2023/12/06 04:11:44;;;;;;;54.63;22.50;;;3.00;99.90;;;;;;5058593;28;20181;-83
2023/12/06 04:14:10;;;;;;;51.07;22.97;;;3.10;99.90;;;;;;5058867;28;20208;-83
2023/12/06 04:16:36;;;;;;;46.97;21.60;;;3.10;99.90;;;;;;5059002;28;20403;-83
2023/12/06 04:19:02;;;;;;;48.17;20.35;;;3.10;99.90;;;;;;5041427;28;20222;-83
2023/12/06 04:21:28;;;;;;;53.47;20.07;;;3.00;99.90;;;;;;5059645;28;20201;-83
2023/12/06 04:23:54;;;;;;;51.60;21.87;;;3.10;99.90;;;;;;5042080;28;20427;-83
2023/12/06 04:26:21;;;;;;;45.57;20.73;;;3.10;99.90;;;;;;5041867;28;20162;-83
2023/12/06 04:28:46;;;;;;;48.60;21.30;;;3.10;99.90;;;;;;5059914;28;20160;-83
2023/12/06 04:31:12;;;;;;;56.07;25.03;;;3.20;99.90;;;;;;5042919;28;20259;-83
2023/12/06 04:33:38;;;;;;;54.00;21.40;;;3.20;99.90;;;;;;5044710;28;20673;-83
2023/12/06 04:36:04;;;;;;;54.43;21.60;;;3.20;99.90;;;;;;5062921;28;20166;-83
2023/12/06 04:38:30;;;;;;;54.90;21.63;;;3.20;99.90;;;;;;5045169;28;20173;-83
2023/12/06 04:40:56;;;;;;;53.00;20.00;;;3.10;99.90;;;;;;5062284;28;20196;-83
2023/12/06 04:43:22;;;;;;;54.37;21.90;;;3.20;99.90;;;;;;5063081;28;20162;-83
2023/12/06 04:45:48;;;;;;;53.97;21.40;;;3.20;99.90;;;;;;5062411;28;20430;-83
2023/12/06 04:48:14;;;;;;;50.43;21.60;;;3.20;99.90;;;;;;5044353;28;20165;-83
2023/12/06 04:50:39;;;;;;;50.77;22.27;;;3.20;99.90;;;;;;5044438;28;20219;-84
2023/12/06 04:53:05;;;;;;;49.13;21.13;;;3.10;99.90;;;;;;5044259;28;20179;-84
2023/12/06 04:55:31;;;;;;;52.80;21.07;;;3.20;99.90;;;;;;5225062;22;20224;-84
2023/12/06 05:00:26;;;;;;;54.88;23.65;;;3.20;99.90;;;;;;5058872;28;20205;-84
2023/12/06 05:02:52;;;;;;;51.60;21.23;;;3.30;99.90;;;;;;5061889;28;20221;-84
2023/12/06 05:05:17;;;;;;;56.40;23.50;;;3.30;99.90;;;;;;5043448;28;20215;-84
2023/12/06 05:07:43;;;;;;;58.63;24.77;;;3.30;99.90;;;;;;5044086;28;20194;-84
2023/12/06 05:10:10;;;;;;;58.47;24.53;;;3.30;99.90;;;;;;5061474;28;20176;-84
2023/12/06 05:12:35;;;;;;;55.03;25.27;;;3.30;99.90;;;;;;5043421;28;20260;-84
2023/12/06 05:15:01;;;;;;;57.00;23.23;;;3.30;99.90;;;;;;5061545;28;20239;-84
2023/12/06 05:17:27;;;;;;;66.80;25.03;;;3.30;99.90;;;;;;5044106;28;20184;-84
2023/12/06 05:19:53;;;;;;;58.00;21.77;;;3.30;99.90;;;;;;5044388;28;20179;-84
2023/12/06 05:22:21;;;;;;;58.08;23.83;;;3.30;99.90;;;;;;5044521;28;20418;-85
2023/12/06 05:24:47;;;;;;;53.72;23.58;;;3.30;99.90;;;;;;5061733;28;20210;-85
2023/12/06 05:27:13;;;;;;;54.93;21.80;;;3.40;99.90;;;;;;5061551;28;20162;-84
2023/12/06 05:29:38;;;;;;;47.77;21.40;;;3.40;99.90;;;;;;5061700;28;20172;-84
2023/12/06 05:32:05;;;;;;;49.20;20.13;;;3.40;99.90;;;;;;5043052;28;20173;-84
2023/12/06 05:34:30;;;;;;;52.78;22.15;;;3.40;99.90;;;;;;5062006;28;20554;-84
2023/12/06 05:37:01;;;;;;;49.60;19.73;;;3.40;99.90;;;;;;5062542;28;20173;-85
2023/12/06 05:39:27;;;;;;;52.78;20.60;;;3.40;99.90;;;;;;5044432;28;20165;-85
2023/12/06 05:41:55;;;;;;;52.87;20.60;;;3.40;99.90;;;;;;5061038;28;20208;-85
2023/12/06 05:44:23;;;;;;;48.85;21.05;;;3.40;99.90;;;;;;5061655;28;20994;-85
2023/12/06 05:46:54;;;;;;;55.30;20.27;;;3.40;99.90;;;;;;5061246;28;20252;-84
2023/12/06 05:49:20;;;;;;;49.58;20.73;;;3.40;99.90;;;;;;5062280;28;20153;-85
2023/12/06 05:51:46;;;;;;;50.80;21.07;;;3.40;99.90;;;;;;5043664;28;20650;-85
2023/12/06 05:54:11;;;;;;;51.53;23.37;;;3.40;99.90;;;;;;5060991;28;20811;-85
2023/12/06 05:56:37;;;;;;;46.37;20.20;;;3.40;99.90;;;;;;5044239;28;20715;-85
2023/12/06 05:59:08;;;;;;;44.33;19.13;;;3.40;99.90;;;;;;5061455;28;20423;-84
2023/12/06 06:01:37;;;;;;;50.88;21.33;;;3.40;99.90;;;;;;5061123;28;20181;-85
2023/12/06 06:04:03;;;;;;;55.30;20.38;;;3.40;99.90;;;;;;5060478;28;20680;-85
2023/12/06 06:06:35;;;;;;;50.10;20.83;;;3.40;99.90;;;;;;5062023;28;20170;-85
2023/12/06 06:09:02;;;;;;;48.33;21.30;;;3.40;99.90;;;;;;5060867;28;20775;-85
2023/12/06 06:11:36;;;;;;;46.63;19.10;;;3.40;99.90;;;;;;5060321;28;20165;-85
2023/12/06 06:14:13;;;;;;;47.47;20.15;;;3.40;99.90;;;;;;5061323;28;20198;-85
2023/12/06 06:16:50;;;;;;;48.38;21.65;;;3.50;99.90;;;;;;5042834;28;20165;-85
2023/12/06 06:19:48;;;;;;;45.50;21.40;;;3.50;99.90;;;;;;5061720;28;20175;-85
2023/12/06 06:22:16;;;;;;;47.42;20.63;;;3.50;99.90;;;;;;5043373;28;20181;-85
2023/12/06 06:24:56;;;;;;;43.67;19.10;;;3.50;99.90;;;;;;5043109;28;20287;-85
2023/12/06 06:27:22;;;;;;;46.55;19.63;;;3.50;99.90;;;;;;5060938;28;20145;-84
2023/12/06 06:30:16;;;;;;;51.33;22.83;;;3.50;99.90;;;;;;5061652;28;20248;-85
2023/12/06 06:32:45;;;;;;;46.33;21.85;;;3.50;99.90;;;;;;4998726;28;20179;-84
2023/12/06 06:35:15;;;;;;;47.63;21.38;;;3.50;99.90;;;;;;5037429;28;20235;-84
2023/12/06 06:38:02;;;;;;;45.00;18.95;;;3.50;99.90;;;;;;5060013;28;20622;-84
2023/12/06 06:40:39;;;;;;;47.05;21.88;;;3.50;99.90;;;;;;5059801;28;20196;-84
2023/12/06 06:43:10;;;;;;;49.05;21.10;;;3.60;99.90;;;;;;5041804;28;20172;-84
2023/12/06 06:45:47;;;;;;;49.70;21.23;;;3.60;99.90;;;;;;5059065;28;20173;-84
2023/12/06 06:48:24;;;;;;;49.95;21.50;;;3.60;99.90;;;;;;5059907;28;20149;-84
2023/12/06 06:50:52;;;;;;;45.38;19.95;;;3.60;99.90;;;;;;5059967;28;20149;-84
2023/12/06 06:53:23;;;;;;;47.15;20.67;;;3.60;99.90;;;;;;5059543;28;20176;-84
2023/12/06 06:55:55;;;;;;;43.67;20.60;;;3.60;99.90;;;;;;5064745;28;20192;-84
2023/12/06 06:58:28;;;;;;;49.70;20.58;;;3.60;99.90;;;;;;5061308;28;20177;-84
2023/12/06 07:01:20;;;;;;;46.03;20.30;;;3.60;99.90;;;;;;5060674;28;20527;-84
2023/12/06 07:04:11;;;;;;;;;;;;;;;;;;;;;
2023/12/06 07:06:52;;;;;;;49.92;20.15;;;3.60;99.90;;;;;;5059876;28;20244;-85
2023/12/06 07:09:17;;;;;;;47.30;21.83;;;3.60;99.90;;;;;;5060617;28;20145;-84
2023/12/06 07:11:51;;;;;;;45.90;21.20;;;3.70;99.90;;;;;;5042493;28;20187;-85
2023/12/06 07:14:22;;;;;;;53.10;21.33;;;3.70;99.90;;;;;;5060126;28;20197;-85
2023/12/06 07:17:08;;;;;;;43.85;19.85;;;3.60;99.90;;;;;;5042788;28;20183;-85
2023/12/06 07:20:16;;;;;;;46.53;20.13;;;3.70;99.90;;;;;;5059801;28;20172;-85
2023/12/06 07:22:44;;;;;;;44.35;19.63;;;3.70;99.90;;;;;;5057910;28;20189;-85
2023/12/06 07:25:18;;;;;;;47.15;21.77;;;3.70;99.90;;;;;;5058976;28;20219;-85
2023/12/06 07:27:57;;;;;;;47.08;19.73;;;3.70;99.90;;;;;;5059234;28;20177;-84
2023/12/06 07:30:29;;;;;;;42.70;19.38;;;3.70;99.90;;;;;;5041622;28;20160;-84
2023/12/06 07:33:06;;;;;;;45.42;21.38;;;3.70;99.90;;;;;;5040659;28;20229;-85
2023/12/06 07:35:34;;;;;;;49.45;20.10;;;3.60;99.90;;;;;;5059929;28;20653;-85
2023/12/06 07:38:02;;;;;;;43.13;19.40;;;3.60;99.90;;;;;;5060213;28;20681;-85
2023/12/06 07:40:42;;;;;;;48.25;19.92;;;3.60;99.90;;;;;;5059466;28;20276;-85
2023/12/06 07:43:08;;;;;;;42.28;18.35;;;3.60;99.90;;;;;;5040778;28;20210;-85
2023/12/06 07:46:16;;;;;;;;;;;;;;;;;;;;;
2023/12/06 07:48:54;;;;;;;43.50;19.02;;;3.70;99.90;;;;;;5059048;28;20209;-85
2023/12/06 07:51:31;;;;;;;44.30;19.00;;;3.70;99.90;;;;;;5040295;28;20687;-85
2023/12/06 07:54:10;;;;;;;46.78;19.65;;;3.70;99.90;;;;;;5039618;28;20196;-84
2023/12/06 07:57:02;;;;;;;;;;;;;;;;;;;;;
2023/12/06 07:59:37;;;;;;;44.33;19.10;;;3.80;99.90;;;;;;5059205;28;20255;-85
2023/12/06 08:02:12;;;;;;;44.45;19.30;;;3.90;99.90;;;;;;5058937;28;20211;-85
2023/12/06 08:04:48;;;;;;;45.20;18.25;;;3.90;99.90;;;;;;5058780;28;20188;-84
2023/12/06 08:07:17;;;;;;;40.70;17.98;;;3.90;99.90;;;;;;5062193;28;20187;-84
2023/12/06 08:10:05;;;;;;;44.28;17.63;;;3.90;99.90;;;;;;5044687;28;20162;-84
2023/12/06 08:12:55;;;;;;;44.53;19.33;;;3.90;99.90;;;;;;5060421;28;20166;-84
2023/12/06 08:15:31;;;;;;;42.20;18.05;;;3.90;99.90;;;;;;5044772;28;20677;-84
2023/12/06 08:18:25;;;;;;;48.00;18.30;;;3.90;99.90;;;;;;5044572;28;20251;-84
2023/12/06 08:21:07;;;;;;;45.90;19.80;;;4.00;99.90;;;;;;5059681;28;20232;-84
2023/12/06 08:24:07;;;;;;;;;;;;;;;;;;;;;
2023/12/06 08:26:30;;;;;;;46.45;20.05;;;4.00;99.90;;;;;;5060505;28;20231;-84
2023/12/06 08:29:21;;;;;;;44.08;18.95;;;4.00;99.90;;;;;;5062343;28;20189;-84
2023/12/06 08:32:35;;;;;;;42.88;18.20;;;4.00;99.90;;;;;;5061665;28;20625;-85
2023/12/06 08:34:48;;;;;;;42.53;18.05;;;4.00;99.90;;;;;;5055123;28;20197;-85
2023/12/06 08:37:40;;;;;;;42.70;19.27;;;4.10;99.90;;;;;;5062993;28;20172;-85
2023/12/06 08:40:46;;;;;;;39.92;17.42;;;4.10;99.90;;;;;;5062990;28;20184;-84
2023/12/06 08:43:45;;;;;;;46.30;19.13;;;4.10;99.90;;;;;;5044973;28;20199;-85
2023/12/06 08:46:37;;;;;;;42.80;18.73;;;4.00;99.90;;;;;;5045103;28;20154;-85
2023/12/06 08:49:20;;;;;;;41.00;18.13;;;4.10;99.90;;;;;;5055949;28;20236;-84
2023/12/06 08:52:12;;;;;;;46.13;20.73;;;4.10;99.90;;;;;;5062872;28;20153;-84
2023/12/06 08:55:29;;;;;;;49.25;20.55;;;4.10;99.90;;;;;;5044331;28;20189;-85
2023/12/06 08:58:12;;;;;;;46.97;19.70;;;4.10;99.90;;;;;;5002016;28;20271;-85
2023/12/06 09:01:16;;;;;;;45.88;19.73;;;4.10;99.90;;;;;;5001862;28;20199;-85
2023/12/06 09:03:48;;;;;;;44.25;17.92;;;4.10;99.90;;;;;;5001078;28;20219;-84
2023/12/06 09:09:39;;;;;;;38.08;17.42;;;4.20;99.90;;;;;;5040467;28;20233;-84
2023/12/06 09:12:13;;;;;;;41.20;17.52;;;4.30;99.90;;;;;;5063504;28;20199;-85
2023/12/06 09:15:00;;;;;;;44.15;18.05;;;4.30;99.90;;;;;;5064155;28;20573;-85
2023/12/06 09:18:05;;;;;;;44.67;19.45;;;4.40;99.90;;;;;;5063619;28;20165;-85
2023/12/06 09:21:40;;;;;;;39.22;16.52;;;4.40;99.90;;;;;;5061695;28;20196;-84
2023/12/06 09:24:13;;;;;;;41.35;17.90;;;4.40;99.90;;;;;;4995265;28;20195;-85
2023/12/06 09:27:38;;;;;;;40.78;18.02;;;4.40;99.90;;;;;;4997887;28;20171;-84
2023/12/06 09:30:25;;;;;;;43.95;17.83;;;4.50;99.90;;;;;;4938657;29;20651;-85
2023/12/06 09:32:56;;;;;;;48.28;20.05;;;4.50;99.90;;;;;;5000184;28;20590;-85
2023/12/06 09:39:27;;;;;;;39.33;16.33;;;4.50;99.90;;;;;;5020767;28;20179;-85
2023/12/06 09:45:58;;;;;;;42.22;16.50;;;4.60;99.90;;;;;;5103127;22;20288;-84
2023/12/06 09:51:52;;;;;;;41.92;16.95;;;4.70;99.90;;;;;;5033216;28;20575;-85
2023/12/06 09:54:20;;;;;;;46.03;19.67;;;4.80;99.90;;;;;;5036728;28;20193;-85
2023/12/06 09:57:41;;;;;;;43.55;17.10;;;4.80;99.90;;;;;;5036577;28;20225;-85
2023/12/06 10:00:17;;;;;;;42.13;16.70;;;4.70;99.90;;;;;;5018974;28;20181;-85
2023/12/06 10:02:54;;;;;;;44.85;17.13;;;4.70;99.90;;;;;;5036905;28;20673;-85
2023/12/06 10:05:39;;;;;;;46.97;17.73;;;4.70;99.90;;;;;;5036575;28;20186;-85
2023/12/06 10:08:34;;;;;;;38.72;16.80;;;4.80;99.90;;;;;;5019012;28;20625;-85
2023/12/06 10:11:23;;;;;;;44.38;19.58;;;4.70;99.90;;;;;;5018728;28;20178;-85
2023/12/06 10:14:17;;;;;;;41.58;18.13;;;4.80;99.90;;;;;;4991580;28;20620;-85
2023/12/06 10:16:48;;;;;;;48.50;19.67;;;4.80;99.90;;;;;;5035665;28;20223;-85
2023/12/06 10:19:23;;;;;;;41.97;17.70;;;4.90;99.90;;;;;;5036226;28;20485;-85
2023/12/06 10:21:50;;;;;;;49.92;18.10;;;4.90;99.90;;;;;;5036146;28;20177;-84
2023/12/06 10:24:18;;;;;;;42.42;17.23;;;4.90;99.90;;;;;;5002138;28;20217;-84
2023/12/06 10:26:49;;;;;;;41.17;17.85;;;4.90;99.90;;;;;;5035804;28;20173;-84
2023/12/06 10:29:15;;;;;;;42.47;18.33;;;4.90;99.90;;;;;;5017862;28;20631;-84
2023/12/06 10:31:45;;;;;;;40.57;17.33;;;5.00;99.90;;;;;;5035933;28;20216;-84
2023/12/06 10:34:23;;;;;;;42.65;17.63;;;5.00;99.90;;;;;;5018456;28;20249;-85
2023/12/06 10:36:58;;;;;;;44.60;16.33;;;5.10;99.90;;;;;;5036469;28;20149;-85
2023/12/06 10:39:52;;;;;;;45.35;17.70;;;5.10;99.90;;;;;;5036187;28;20146;-85
2023/12/06 10:43:11;;;;;;;39.90;15.82;;;5.10;99.90;;;;;;5035546;28;20654;-85
2023/12/06 10:45:52;;;;;;;39.55;17.20;;;5.10;99.90;;;;;;5029629;28;20252;-85
2023/12/06 10:51:40;;;;;;;46.20;18.85;;;5.10;99.90;;;;;;5027703;28;20239;-85
2023/12/06 10:54:29;;;;;;;45.25;17.58;;;5.20;99.90;;;;;;5034908;28;20186;-85
2023/12/06 10:57:03;;;;;;;41.50;17.38;;;5.20;99.90;;;;;;5017705;28;20595;-85
2023/12/06 10:59:45;;;;;;;38.50;15.25;;;5.20;99.90;;;;;;5035268;28;20576;-85
2023/12/06 11:02:50;;;;;;;;;;;;;;;;;;;;;
2023/12/06 11:05:50;;;;;;;41.22;17.40;;;5.20;99.90;;;;;;5029944;28;20207;-85
2023/12/06 11:08:43;;;;;;;40.35;14.88;;;5.20;99.90;;;;;;5017427;28;20170;-85
2023/12/06 11:11:47;;;;;;;46.53;17.95;;;5.20;99.90;;;;;;5017265;28;20201;-85
2023/12/06 11:20:14;;;;;;;43.95;16.13;;;5.30;99.90;;;;;;5054538;28;20235;-85
2023/12/06 11:23:06;;;;;;;43.35;16.73;;;5.30;99.90;;;;;;5037857;28;20164;-85
2023/12/06 11:25:52;;;;;;;37.55;15.88;;;5.20;99.90;;;;;;5055617;28;20188;-85
2023/12/06 11:28:42;;;;;;;44.03;17.02;;;5.30;99.90;;;;;;5055501;28;20156;-85
2023/12/06 11:39:01;;;;;;;42.05;17.10;;;5.30;99.90;;;;;;4923158;28;20189;-84
2023/12/06 11:42:09;;;;;;;38.30;15.43;;;5.40;99.90;;;;;;4976270;28;20210;-84
2023/12/06 11:44:59;;;;;;;39.28;14.27;;;5.40;99.90;;;;;;4978420;28;20278;-85
2023/12/06 11:47:41;;;;;;;40.40;14.40;;;5.50;99.90;;;;;;5060295;28;20152;-84
2023/12/06 11:51:07;;;;;;;40.65;15.32;;;5.50;99.90;;;;;;5043599;28;20177;-84
2023/12/06 11:54:19;;;;;;;41.65;14.82;;;5.50;99.90;;;;;;5031692;28;20176;-85
2023/12/06 11:57:47;;;;;;;34.05;12.95;;;5.50;99.90;;;;;;5034713;28;20226;-85
2023/12/06 12:00:56;;;;;;;;;;;;;;;;;;;;;
2023/12/06 12:03:38;;;;;;;38.17;14.35;;;5.60;99.90;;;;;;5037568;28;20542;-85
2023/12/06 12:06:42;;;;;;;;;;;;;;;;;;;;;
2023/12/06 12:09:40;;;;;;;;;;;;;;;;;;;;;
2023/12/06 12:13:03;;;;;;;36.40;12.75;;;5.60;99.90;;;;;;5058456;28;20161;-85
2023/12/06 12:16:07;;;;;;;42.88;13.93;;;5.60;99.90;;;;;;4995924;28;20782;-85
2023/12/06 12:19:28;;;;;;;36.00;12.57;;;5.60;99.90;;;;;;4999320;28;20188;-84
2023/12/06 12:26:10;;;;;;;39.20;13.48;;;5.70;99.90;;;;;;5040291;28;20205;-85
2023/12/06 12:28:58;;;;;;;39.83;14.27;;;5.70;99.90;;;;;;5057102;28;20177;-85
2023/12/06 12:32:07;;;;;;;34.47;13.10;;;5.80;99.90;;;;;;5039472;28;20616;-85
2023/12/06 12:34:56;;;;;;;;;;;;;;;;;;;;;
2023/12/06 12:37:55;;;;;;;45.20;13.70;;;5.90;99.90;;;;;;5057870;28;20177;-85
2023/12/06 12:40:30;;;;;;;33.85;11.85;;;6.00;99.90;;;;;;4988776;28;20180;-85
2023/12/06 12:43:21;;;;;;;33.45;11.73;;;5.90;99.90;;;;;;5040577;28;20189;-85
2023/12/06 12:46:15;;;;;;;;;;;;;;;;;;;;;
2023/12/06 12:49:11;;;;;;;35.72;11.50;;;5.90;99.90;;;;;;5057617;28;20179;-85
2023/12/06 12:54:59;;;;;;;31.20;11.10;;;5.90;99.90;;;;;;5034995;28;20702;-84
2023/12/06 12:58:02;;;;;;;32.88;10.65;;;5.90;99.90;;;;;;5037838;28;20154;-84
2023/12/06 13:01:18;;;;;;;30.73;9.32;;;5.90;99.90;;;;;;5037235;28;20197;-84
2023/12/06 13:03:35;;;;;;;31.98;10.23;;;5.90;99.90;;;;;;5026207;28;20685;-84
2023/12/06 13:06:03;;;;;;;33.53;10.30;;;6.00;99.90;;;;;;5037565;28;20245;-84
2023/12/06 13:08:53;;;;;;;35.72;9.98;;;6.10;99.90;;;;;;5037147;28;20158;-84
2023/12/06 13:11:28;;;;;;;31.65;9.93;;;6.10;99.90;;;;;;5037119;28;20205;-84
2023/12/06 13:13:56;;;;;;;27.95;8.70;;;6.20;99.90;;;;;;5037204;28;20272;-85
2023/12/06 13:16:52;;;;;;;30.52;9.38;;;6.10;99.90;;;;;;5019537;28;20197;-84
2023/12/06 13:19:29;;;;;;;30.15;8.80;;;6.20;99.90;;;;;;5037099;28;20178;-85
2023/12/06 13:21:57;;;;;;;29.63;9.20;;;6.30;99.90;;;;;;5037183;28;20276;-84
2023/12/06 13:24:28;;;;;;;30.90;9.32;;;6.30;99.90;;;;;;5026356;23;20213;-85
2023/12/06 13:27:28;;;;;;;30.65;9.98;;;6.30;99.90;;;;;;5019692;28;20232;-84
2023/12/06 13:30:00;;;;;;;30.42;9.65;;;6.40;99.90;;;;;;5019282;28;20162;-83
2023/12/06 13:32:36;;;;;;;29.90;10.13;;;6.30;99.90;;;;;;5036936;28;20172;-84
2023/12/06 13:35:16;;;;;;;29.67;9.45;;;6.20;99.90;;;;;;5019232;28;20205;-84
2023/12/06 13:38:01;;;;;;;;;;;;;;;;;;;;;
2023/12/06 13:40:37;;;;;;;31.52;11.32;;;6.10;99.90;;;;;;5036362;28;20212;-84
2023/12/06 13:43:08;;;;;;;26.00;9.82;;;6.20;99.90;;;;;;5036550;28;20168;-83
2023/12/06 13:46:42;;;;;;;;;;;;;;;;;;;;;
2023/12/06 13:49:18;;;;;;;34.50;9.93;;;6.20;99.90;;;;;;5042246;28;20604;-85
2023/12/06 13:52:12;;;;;;;28.27;9.90;;;6.20;99.90;;;;;;5056367;28;20161;-84
2023/12/06 13:54:43;;;;;;;32.72;10.98;;;6.30;99.90;;;;;;5038588;28;20213;-84
2023/12/06 13:57:15;;;;;;;30.38;10.32;;;6.10;99.90;;;;;;5039071;28;20680;-84
2023/12/06 14:05:48;;;;;;;30.23;10.23;;;6.00;99.90;;;;;;5500870;22;20256;-84
2023/12/06 14:08:46;;;;;;;33.72;10.88;;;6.00;99.90;;;;;;5037822;28;20228;-84
2023/12/06 14:11:47;;;;;;;29.50;9.80;;;6.00;99.90;;;;;;5056286;28;20184;-84
2023/12/06 14:14:42;;;;;;;;;;;;;;;;;;;;;
2023/12/06 14:17:43;;;;;;;33.75;9.13;;;6.10;99.90;;;;;;5056507;28;20184;-84
2023/12/06 14:20:02;;;;;;;31.85;9.35;;;6.00;99.90;;;;;;5053257;28;20670;-85
2023/12/06 14:23:02;;;;;;;34.03;9.50;;;6.10;99.90;;;;;;5038242;28;20189;-84
2023/12/06 14:29:02;;;;;;;30.42;8.48;;;6.00;99.90;;;;;;5047070;28;20222;-84
2023/12/06 14:34:23;;;;;;;28.67;8.95;;;6.10;99.90;;;;;;5057023;28;20196;-84
2023/12/06 14:36:49;;;;;;;32.83;8.48;;;6.10;99.90;;;;;;5038918;28;20525;-84
2023/12/06 14:39:14;;;;;;;27.37;8.00;;;6.10;99.90;;;;;;5056897;28;20236;-85